KSCF/SCF METAR and TAF weather

Enter ICAO airport designator
Station Type Date Time Source
KSCF METAR 2020/02/28 08:55 UTC NOAA

KSCF 280855Z AUTO 29010KT 10SM CLR 11/02 A3033 RMK A01


Station Type Date Time Source
KSCF Decoded METAR 2020/02/28 08:55 UTC NOAA

South Marsh 268, LA, United States (KSCF) 29-06-57N 091-52-16W
Feb 28, 2020 - 03:55 AM EST / 2020.02.28 0855 UTC
Wind: from the WNW (290 degrees) at 12 MPH (10 KT):0
Visibility: 10 mile(s):0
Sky conditions: clear
Temperature: 51 F (11 C)
Dew Point: 35 F (2 C)
Relative Humidity: 53%
Pressure (altimeter): 30.33 in. Hg (1027 hPa)
ob: KSCF 280855Z AUTO 29010KT 10SM CLR 11/02 A3033 RMK A01
cycle: 9

Station Type Date Time Source
KSCF TAF UTC NOAA

Error!

Example: see airport list